Time;durP1;ratioP1;P1;durP2;ratioP2;P2;SDS_P1;SDS_P2;PMS_P1;PMS_P2;Temp;Humidity;BMP_temperature;BMP_pressure;BME280_temperature;BME280_humidity;BME280_pressure;Samples;Min_cycle;Max_cycle;Signal;HPM_P1;HPM_P2
2021/05/15 00:01:22;;;;;;;4.83;3.75;;;;;;;15.04;68.54;98857.05;1676726;84;21017;-71
2021/05/15 00:03:48;;;;;;;8.03;3.80;;;;;;;15.04;68.56;98856.49;1699824;83;21573;-73
2021/05/15 00:06:15;;;;;;;7.45;4.42;;;;;;;15.06;68.61;98856.20;1684148;84;20968;-69
2021/05/15 00:08:41;;;;;;;5.65;3.98;;;;;;;15.05;68.71;98853.23;1665910;85;21061;-69
2021/05/15 00:11:07;;;;;;;6.60;4.75;;;;;;;15.04;68.86;98852.43;1670195;84;21021;-68
2021/05/15 00:13:35;;;;;;;4.35;3.92;;;;;;;15.03;68.89;98858.94;1679540;85;21081;-68
2021/05/15 00:16:02;;;;;;;5.67;3.85;;;;;;;15.04;68.98;98857.05;1671765;85;20989;-67
2021/05/15 00:18:28;;;;;;;4.08;3.67;;;;;;;15.04;69.07;98857.84;1676549;85;21105;-68
2021/05/15 00:20:55;;;;;;;5.22;4.45;;;;;;;15.06;69.21;98856.20;1611495;86;21030;-70
2021/05/15 00:23:22;;;;;;;4.45;3.87;;;;;;;15.08;69.36;98864.81;1647073;86;21104;-73
2021/05/15 00:25:48;;;;;;;4.58;3.75;;;;;;;15.11;69.27;98860.14;1606017;88;21020;-73
2021/05/15 00:28:15;;;;;;;8.05;4.75;;;;;;;15.19;69.15;98859.47;1659904;85;21014;-71
2021/05/15 00:30:41;;;;;;;6.03;4.22;;;;;;;15.25;69.00;98858.28;1648581;86;21065;-71
2021/05/15 00:33:07;;;;;;;8.38;4.35;;;;;;;15.28;68.93;98858.47;1682078;85;21009;-70
2021/05/15 00:35:34;;;;;;;9.05;4.25;;;;;;;15.21;69.09;98863.47;1636032;86;21655;-72
2021/05/15 00:38:01;;;;;;;4.37;3.98;;;;;;;15.17;69.25;98857.05;1661750;85;20942;-71
2021/05/15 00:40:27;;;;;;;6.12;4.72;;;;;;;15.15;69.40;98857.11;1645393;86;20990;-72
2021/05/15 00:42:55;;;;;;;5.17;3.98;;;;;;;15.14;69.53;98860.92;1666357;85;21062;-70
2021/05/15 00:45:22;;;;;;;4.75;3.65;;;;;;;15.11;69.73;98860.95;1682968;85;21092;-70
2021/05/15 00:47:48;;;;;;;6.08;4.62;;;;;;;15.06;70.05;98862.39;1650624;86;21079;-71
2021/05/15 00:50:15;;;;;;;4.28;3.47;;;;;;;14.99;70.49;98863.91;1651590;86;21175;-70
2021/05/15 00:52:41;;;;;;;5.12;4.62;;;;;;;14.92;70.97;98859.41;1661956;85;21138;-70
2021/05/15 00:55:13;;;;;;;6.05;4.37;;;;;;;14.91;70.93;98865.95;1626383;86;21058;-67
2021/05/15 00:57:41;;;;;;;4.92;4.20;;;;;;;14.96;71.00;98864.51;1657333;86;21097;-72
2021/05/15 01:00:13;;;;;;;6.47;5.70;;;;;;;15.02;70.97;98863.30;1667465;85;21134;-73
2021/05/15 01:02:39;;;;;;;5.92;4.05;;;;;;;15.05;70.96;98856.75;1627116;87;21090;-73
2021/05/15 01:05:07;;;;;;;5.95;4.65;;;;;;;15.07;70.97;98854.53;1611055;87;21009;-72
2021/05/15 01:07:34;;;;;;;4.83;3.67;;;;;;;15.07;71.02;98851.82;1635028;86;21110;-72
2021/05/15 01:10:00;;;;;;;4.67;4.25;;;;;;;15.06;71.08;98852.14;1657796;85;21061;-73
2021/05/15 01:12:28;;;;;;;5.10;4.55;;;;;;;15.06;71.17;98860.27;1611392;87;21129;-73
2021/05/15 01:14:57;;;;;;;5.75;4.12;;;;;;;15.04;71.17;98859.20;1623685;87;21092;-73
2021/05/15 01:17:23;;;;;;;5.12;4.62;;;;;;;15.03;71.27;98863.55;1629106;87;21462;-72
2021/05/15 01:19:50;;;;;;;7.60;5.35;;;;;;;15.00;71.40;98863.61;1622586;87;21623;-73
2021/05/15 01:22:16;;;;;;;9.20;4.58;;;;;;;14.97;71.56;98857.42;1637882;87;21197;-69
2021/05/15 01:24:44;;;;;;;7.58;4.78;;;;;;;14.95;71.75;98861.55;1623571;87;21057;-71
2021/05/15 01:27:14;;;;;;;4.92;4.53;;;;;;;14.94;71.90;98866.16;1643575;86;20954;-70
2021/05/15 01:29:42;;;;;;;7.45;6.05;;;;;;;14.97;72.05;98868.25;1637481;86;21058;-69
2021/05/15 01:32:10;;;;;;;8.65;5.95;;;;;;;14.99;71.99;98866.06;1653397;86;21580;-69
2021/05/15 01:34:39;;;;;;;8.20;6.47;;;;;;;14.98;72.06;98863.09;1648240;86;21169;-68
2021/05/15 01:37:06;;;;;;;5.83;5.12;;;;;;;14.97;72.08;98865.55;1639860;86;21105;-68
2021/05/15 01:39:32;;;;;;;8.90;6.37;;;;;;;14.99;72.01;98872.83;1654629;86;21044;-69
2021/05/15 01:41:59;;;;;;;7.15;5.90;;;;;;;15.05;71.92;98870.30;1621088;87;21090;-68
2021/05/15 01:44:28;;;;;;;6.33;5.60;;;;;;;15.04;71.92;98870.03;1644388;86;21098;-69
2021/05/15 01:46:54;;;;;;;7.55;6.03;;;;;;;14.98;72.12;98863.64;1637025;86;21126;-69
2021/05/15 01:49:20;;;;;;;7.40;5.03;;;;;;;14.93;72.27;98876.72;1655346;86;21706;-68
2021/05/15 01:51:47;;;;;;;8.93;6.03;;;;;;;14.90;72.46;98875.17;1650186;86;20943;-68
2021/05/15 01:54:13;;;;;;;8.85;5.78;;;;;;;14.89;72.54;98874.91;1628598;87;21551;-68
2021/05/15 01:56:40;;;;;;;6.70;5.90;;;;;;;14.90;72.65;98872.46;1633400;86;21630;-69
2021/05/15 01:59:08;;;;;;;8.83;6.40;;;;;;;14.91;72.74;98876.78;1617353;86;21086;-71
2021/05/15 02:01:38;;;;;;;8.18;6.72;;;;;;;14.94;72.73;98871.56;1645554;86;23170;-69
2021/05/15 02:04:04;;;;;;;7.47;6.03;;;;;;;14.98;72.64;98873.13;1644149;86;21110;-68
2021/05/15 02:06:32;;;;;;;6.67;6.10;;;;;;;14.98;72.62;98875.28;1621268;86;21073;-69
2021/05/15 02:09:00;;;;;;;7.05;5.92;;;;;;;14.97;72.61;98870.16;1642992;86;21102;-69
2021/05/15 02:11:26;;;;;;;13.10;5.85;;;;;;;14.93;72.76;98874.56;1656265;85;21085;-68
2021/05/15 02:13:53;;;;;;;8.10;6.83;;;;;;;14.87;72.94;98876.55;1664008;85;21648;-69
2021/05/15 02:16:19;;;;;;;9.78;7.17;;;;;;;14.79;73.18;98873.99;1638507;86;21028;-68
2021/05/15 02:18:47;;;;;;;6.55;5.80;;;;;;;14.78;73.37;98880.50;1680301;85;21570;-68
2021/05/15 02:21:14;;;;;;;8.03;5.85;;;;;;;14.75;73.50;98889.23;1638255;86;21117;-69
2021/05/15 02:23:41;;;;;;;7.12;5.37;;;;;;;14.77;73.71;98887.59;1635322;86;21088;-68
2021/05/15 02:26:08;;;;;;;7.10;6.40;;;;;;;14.77;73.85;98890.29;1648640;86;21101;-69
2021/05/15 02:28:35;;;;;;;12.23;7.08;;;;;;;14.77;73.83;98891.06;1675463;85;20931;-73
2021/05/15 02:31:01;;;;;;;6.58;5.65;;;;;;;14.78;73.86;98887.81;1675464;85;21109;-79
2021/05/15 02:33:27;;;;;;;6.85;6.15;;;;;;;14.77;73.86;98892.42;1641045;86;21080;-71
2021/05/15 02:35:54;;;;;;;9.13;6.50;;;;;;;14.79;73.89;98893.48;1642398;86;21601;-68
2021/05/15 02:38:21;;;;;;;11.08;7.97;;;;;;;14.79;73.88;98899.70;1675597;85;21132;-68
2021/05/15 02:40:47;;;;;;;8.35;7.45;;;;;;;14.80;73.87;98892.39;1655836;86;20998;-68
2021/05/15 02:43:15;;;;;;;9.03;7.70;;;;;;;14.79;73.86;98899.70;1657609;86;21561;-68
2021/05/15 02:45:41;;;;;;;13.93;8.08;;;;;;;14.79;73.96;98900.25;1641821;86;21146;-69
2021/05/15 02:48:08;;;;;;;12.03;6.70;;;;;;;14.80;74.01;98892.39;1673715;85;21029;-68
2021/05/15 02:50:35;;;;;;;8.65;7.85;;;;;;;14.86;74.08;98901.23;1640663;86;21180;-69
2021/05/15 02:53:02;;;;;;;9.15;7.10;;;;;;;14.88;74.00;98903.89;1672356;85;21120;-67
2021/05/15 02:55:29;;;;;;;10.20;7.62;;;;;;;14.93;73.87;98909.77;1680201;85;20974;-68
2021/05/15 02:57:56;;;;;;;8.93;7.17;;;;;;;14.96;73.79;98913.25;1670491;85;21135;-69
2021/05/15 03:00:26;;;;;;;7.92;7.22;;;;;;;14.98;73.70;98921.86;1669476;85;21629;-68
2021/05/15 03:02:52;;;;;;;8.60;7.55;;;;;;;14.98;73.66;98919.16;1654125;85;22800;-68
2021/05/15 03:05:22;;;;;;;11.28;7.75;;;;;;;14.97;73.66;98917.00;1674529;85;21030;-69
2021/05/15 03:07:49;;;;;;;10.15;7.30;;;;;;;14.97;73.69;98925.66;1645554;85;21081;-69
2021/05/15 03:10:16;;;;;;;13.70;8.08;;;;;;;14.96;73.74;98922.18;1661204;85;21582;-69
2021/05/15 03:12:42;;;;;;;7.95;7.15;;;;;;;14.97;73.80;98926.47;1633549;85;21558;-70
2021/05/15 03:15:11;;;;;;;10.72;8.03;;;;;;;14.99;73.84;98923.48;1636147;86;21115;-69
2021/05/15 03:17:41;;;;;;;9.40;7.85;;;;;;;15.00;73.90;98927.80;1650998;85;20967;-71
2021/05/15 03:20:13;;;;;;;8.30;7.42;;;;;;;15.07;73.85;98922.23;1634799;86;21026;-68
2021/05/15 03:22:41;;;;;;;13.30;7.67;;;;;;;15.13;73.68;98927.02;1652845;85;21058;-70
2021/05/15 03:25:09;;;;;;;12.50;6.67;;;;;;;15.12;73.60;98930.82;1648006;86;21058;-68
2021/05/15 03:27:35;;;;;;;10.38;7.92;;;;;;;15.12;73.59;98930.27;1637245;85;21038;-67
2021/05/15 03:30:04;;;;;;;12.10;7.70;;;;;;;15.10;73.62;98941.16;1639028;85;21045;-69
2021/05/15 03:32:31;;;;;;;7.95;7.05;;;;;;;15.08;73.69;98945.52;1656384;85;21085;-69
2021/05/15 03:34:58;;;;;;;14.63;9.03;;;;;;;15.06;73.75;98945.00;1614594;87;21614;-69
2021/05/15 03:37:24;;;;;;;8.40;7.37;;;;;;;15.06;73.78;98941.52;1663272;85;21071;-68
2021/05/15 03:39:50;;;;;;;8.73;7.80;;;;;;;15.04;73.96;98951.83;1656126;85;21003;-67
2021/05/15 03:42:17;;;;;;;9.03;7.35;;;;;;;14.99;74.20;98949.20;1634207;86;21082;-68
2021/05/15 03:44:44;;;;;;;12.03;8.55;;;;;;;14.94;74.50;98946.03;1659481;85;21046;-71
2021/05/15 03:47:10;;;;;;;11.57;9.40;;;;;;;14.92;74.87;98950.12;1624616;86;21074;-68
2021/05/15 03:49:36;;;;;;;10.05;8.80;;;;;;;14.91;74.89;98952.59;1656242;85;20986;-69
2021/05/15 03:52:04;;;;;;;12.43;8.55;;;;;;;14.89;75.02;98956.14;1666634;85;22114;-68
2021/05/15 03:54:32;;;;;;;11.08;9.65;;;;;;;14.91;75.09;98959.36;1622403;86;21622;-69
2021/05/15 03:56:58;;;;;;;9.75;8.60;;;;;;;14.92;75.10;98956.34;1656731;85;20914;-69
2021/05/15 03:59:25;;;;;;;14.10;9.28;;;;;;;14.93;75.14;98963.91;1645127;86;21077;-69
2021/05/15 04:01:51;;;;;;;16.27;8.90;;;;;;;14.93;75.19;98963.37;1655035;85;20979;-69
2021/05/15 04:04:18;;;;;;;12.40;8.23;;;;;;;14.92;75.39;98971.23;1624454;86;21166;-71
2021/05/15 04:06:47;;;;;;;8.48;7.62;;;;;;;14.94;75.57;98962.82;1655337;85;21535;-69
2021/05/15 04:09:13;;;;;;;7.30;6.53;;;;;;;14.98;75.60;98970.60;1643428;86;21082;-69
2021/05/15 04:11:40;;;;;;;7.42;5.50;;;;;;;15.02;75.54;98958.08;1650218;85;21574;-69
2021/05/15 04:17:16;;;;;;;8.73;7.20;;;;;;;15.03;75.70;98971.87;1642548;85;21371;-70
2021/05/15 04:19:31;;;;;;;10.88;7.67;;;;;;;15.09;75.60;98970.15;1625089;85;21065;-69
2021/05/15 04:21:58;;;;;;;10.28;7.80;;;;;;;15.14;75.45;98978.73;1662982;85;20990;-69
2021/05/15 04:24:26;;;;;;;6.97;6.25;;;;;;;15.16;75.40;98978.68;1637298;86;21066;-68
2021/05/15 04:26:57;;;;;;;10.75;7.00;;;;;;;15.20;75.41;98981.63;1663966;85;20990;-68
2021/05/15 04:29:25;;;;;;;8.70;6.40;;;;;;;15.21;75.44;98984.56;1648873;86;21163;-69
2021/05/15 04:31:56;;;;;;;10.20;7.33;;;;;;;15.26;75.39;98983.12;1645396;87;21034;-71
2021/05/15 04:34:24;;;;;;;14.47;10.32;;;;;;;15.28;75.43;98987.16;1649768;86;20954;-68
2021/05/15 04:36:50;;;;;;;9.05;8.15;;;;;;;15.30;75.39;98990.90;1655507;85;20942;-68
2021/05/15 04:39:17;;;;;;;9.85;8.70;;;;;;;15.31;75.39;98998.48;1634673;86;21100;-69
2021/05/15 04:41:44;;;;;;;9.35;7.55;;;;;;;15.34;75.45;98994.65;1664732;85;21829;-69
2021/05/15 04:44:10;;;;;;;12.20;7.72;;;;;;;15.34;75.42;98991.12;1632601;87;21011;-69
2021/05/15 04:46:37;;;;;;;6.35;5.75;;;;;;;15.37;75.39;98989.98;1615383;86;21558;-70
2021/05/15 04:49:04;;;;;;;10.63;7.65;;;;;;;15.39;75.40;98984.27;1635398;86;21058;-70
2021/05/15 04:51:30;;;;;;;9.08;6.97;;;;;;;15.41;75.43;98992.34;1645544;85;21069;-68
2021/05/15 04:53:56;;;;;;;12.78;7.37;;;;;;;15.48;75.32;98992.77;1645507;87;21186;-68
2021/05/15 04:56:23;;;;;;;11.83;8.10;;;;;;;15.54;75.06;98991.58;1641615;86;21013;-70
2021/05/15 04:58:49;;;;;;;9.20;6.53;;;;;;;15.60;74.92;98996.36;1636811;85;21022;-69
2021/05/15 05:01:16;;;;;;;14.00;7.70;;;;;;;15.63;74.85;98993.84;1647512;85;21086;-68
2021/05/15 05:03:43;;;;;;;12.80;8.05;;;;;;;15.59;74.93;98999.62;1618889;87;21039;-71
2021/05/15 05:06:11;;;;;;;24.98;14.98;;;;;;;15.58;75.07;98996.68;1625007;86;21117;-69
2021/05/15 05:08:38;;;;;;;11.85;7.58;;;;;;;15.60;75.14;98999.88;1647411;85;21018;-70
2021/05/15 05:11:05;;;;;;;9.95;7.85;;;;;;;15.70;75.09;99004.30;1641850;87;21038;-68
2021/05/15 05:13:34;;;;;;;13.10;7.58;;;;;;;15.75;74.85;99005.56;1668053;85;21033;-69
2021/05/15 05:16:01;;;;;;;14.33;7.65;;;;;;;15.76;74.75;99000.41;1672510;84;20988;-69
2021/05/15 05:18:27;;;;;;;10.05;6.28;;;;;;;15.77;74.69;99003.92;1605876;88;21142;-68
2021/05/15 05:20:58;;;;;;;11.78;6.47;;;;;;;15.78;74.74;99009.60;1660274;86;21783;-69
2021/05/15 05:23:25;;;;;;;10.95;6.90;;;;;;;15.81;74.79;99017.93;1588750;88;20981;-71
2021/05/15 05:25:52;;;;;;;10.48;6.45;;;;;;;15.87;74.62;99014.58;1649464;85;21079;-69
2021/05/15 05:28:32;;;;;;;13.55;7.28;;;;;;;15.92;74.29;99014.48;1630492;86;20994;-69
2021/05/15 05:30:49;;;;;;;16.67;8.58;;;;;;;15.94;74.20;99015.77;1639427;87;21119;-67
2021/05/15 05:33:16;;;;;;;15.10;7.90;;;;;;;15.95;74.14;99025.52;1651964;86;21002;-68
2021/05/15 05:35:43;;;;;;;10.72;6.97;;;;;;;15.99;74.10;99031.95;1657203;86;21538;-69
2021/05/15 05:38:10;;;;;;;9.90;6.25;;;;;;;16.05;73.81;99031.30;1657238;86;21038;-79
2021/05/15 05:40:36;;;;;;;12.93;6.53;;;;;;;16.04;73.77;99032.39;1657272;86;21572;-69
2021/05/15 05:43:03;;;;;;;26.57;7.22;;;;;;;16.10;73.85;99028.48;1638047;86;21109;-68
2021/05/15 05:45:29;;;;;;;11.50;6.25;;;;;;;16.14;73.67;99027.58;1635125;86;21688;-67
2021/05/15 05:47:56;;;;;;;8.48;7.25;;;;;;;16.22;73.47;99027.95;1606387;88;21023;-66
2021/05/15 05:50:22;;;;;;;14.65;6.78;;;;;;;16.29;73.09;99034.60;1660385;86;21064;-69
2021/05/15 05:52:49;;;;;;;12.53;7.37;;;;;;;16.38;72.69;99031.42;1613369;86;21097;-69
2021/05/15 05:55:15;;;;;;;16.17;6.83;;;;;;;16.38;72.54;99038.21;1687896;84;20997;-69
2021/05/15 05:57:42;;;;;;;11.63;6.10;;;;;;;16.45;72.36;99031.02;1643458;85;21045;-70
2021/05/15 06:00:10;;;;;;;10.58;6.28;;;;;;;16.47;72.00;99032.31;1615361;87;21053;-68
2021/05/15 06:02:38;;;;;;;13.72;6.83;;;;;;;16.43;72.02;99040.81;1610183;87;20962;-68
2021/05/15 06:05:06;;;;;;;11.60;6.10;;;;;;;16.48;71.86;99048.05;1637382;87;21022;-68
2021/05/15 06:07:33;;;;;;;20.43;8.40;;;;;;;16.52;71.63;99043.61;1673300;84;21066;-67
2021/05/15 06:09:59;;;;;;;17.98;7.55;;;;;;;16.55;71.70;99045.16;1649412;85;21049;-70
2021/05/15 06:12:26;;;;;;;17.80;8.98;;;;;;;16.64;71.50;99047.20;1633940;87;21076;-69
2021/05/15 06:14:53;;;;;;;36.90;11.08;;;;;;;16.71;71.23;99049.73;1641561;87;21067;-67
2021/05/15 06:17:19;;;;;;;21.15;8.18;;;;;;;16.80;70.73;99049.81;1660166;86;21052;-70
2021/05/15 06:19:46;;;;;;;17.48;7.80;;;;;;;16.89;70.33;99054.20;1641802;87;21179;-69
2021/05/15 06:22:13;;;;;;;23.15;7.95;;;;;;;16.99;69.84;99051.26;1682113;85;21053;-70
2021/05/15 06:24:40;;;;;;;24.40;8.73;;;;;;;17.09;69.62;99057.01;1656650;86;22236;-68
2021/05/15 06:27:08;;;;;;;22.22;8.93;;;;;;;17.17;69.21;99059.56;1661856;85;21078;-72
2021/05/15 06:29:35;;;;;;;21.23;8.45;;;;;;;17.24;68.80;99059.37;1638627;86;21073;-69
2021/05/15 06:32:01;;;;;;;17.02;8.88;;;;;;;17.35;68.50;99056.66;1652965;85;22618;-69
2021/05/15 06:34:28;;;;;;;10.38;6.45;;;;;;;17.44;68.21;99058.06;1644754;87;21067;-70
2021/05/15 06:36:54;;;;;;;13.70;6.22;;;;;;;17.49;67.83;99056.58;1641967;87;21092;-68
2021/05/15 06:39:20;;;;;;;10.03;4.60;;;;;;;17.59;67.53;99059.62;1629862;88;21014;-67
2021/05/15 06:41:48;;;;;;;6.55;3.83;;;;;;;17.67;66.94;99064.30;1642940;86;21081;-68
2021/05/15 06:44:15;;;;;;;9.50;4.15;;;;;;;17.71;66.10;99056.57;1630074;88;21686;-68
2021/05/15 06:46:42;;;;;;;9.38;3.58;;;;;;;17.79;65.47;99053.67;1662110;85;21655;-70
2021/05/15 06:49:08;;;;;;;8.10;3.55;;;;;;;17.83;65.45;99057.36;1631594;86;20982;-75
2021/05/15 06:51:36;;;;;;;6.20;4.20;;;;;;;17.90;65.51;99061.78;1673956;85;21017;-69
2021/05/15 06:54:06;;;;;;;3.92;3.08;;;;;;;17.97;65.35;99065.42;1630018;88;21566;-69
2021/05/15 06:56:33;;;;;;;4.22;2.10;;;;;;;18.04;65.21;99069.84;1660379;86;21240;-66
2021/05/15 06:58:59;;;;;;;2.10;1.85;;;;;;;18.15;62.48;99057.56;1629779;88;21050;-69
2021/05/15 07:01:26;;;;;;;3.83;2.30;;;;;;;18.23;62.07;99071.20;1667718;85;21938;-69
2021/05/15 07:03:53;;;;;;;10.55;3.67;;;;;;;18.37;61.73;99067.00;1606845;86;21110;-69
2021/05/15 07:06:19;;;;;;;12.13;3.08;;;;;;;18.48;61.46;99077.84;1688005;85;21033;-70
2021/05/15 07:08:48;;;;;;;6.20;2.65;;;;;;;18.53;60.65;99081.81;1656428;86;21013;-70
2021/05/15 07:11:14;;;;;;;4.78;3.02;;;;;;;18.57;60.54;99077.34;1661973;85;21017;-67
2021/05/15 07:13:42;;;;;;;5.37;2.52;;;;;;;18.62;59.71;99086.72;1647824;86;21026;-71
2021/05/15 07:16:08;;;;;;;6.62;2.17;;;;;;;18.66;59.34;99080.07;1627634;87;21003;-70
2021/05/15 07:18:36;;;;;;;8.15;1.87;;;;;;;18.67;59.29;99087.94;1641235;86;21519;-72
2021/05/15 07:21:03;;;;;;;7.80;2.55;;;;;;;18.70;59.25;99094.09;1640887;86;21026;-69
2021/05/15 07:23:31;;;;;;;5.40;2.15;;;;;;;18.72;59.16;99091.88;1628655;87;21006;-68
2021/05/15 07:25:58;;;;;;;2.83;2.30;;;;;;;18.76;58.72;99102.92;1630738;86;21153;-71
2021/05/15 07:28:27;;;;;;;3.50;2.45;;;;;;;18.82;58.69;99102.22;1621565;87;22345;-69
2021/05/15 07:30:53;;;;;;;3.35;2.33;;;;;;;18.87;58.71;99098.78;1626362;86;21172;-69
2021/05/15 07:33:21;;;;;;;7.45;2.92;;;;;;;18.88;58.91;99099.59;1668730;85;21538;-69
2021/05/15 07:35:48;;;;;;;4.22;3.25;;;;;;;18.87;59.26;99096.62;1669910;85;20977;-69
2021/05/15 07:38:14;;;;;;;4.62;2.60;;;;;;;18.95;59.06;99102.63;1670504;85;20974;-69
2021/05/15 07:40:41;;;;;;;2.55;2.27;;;;;;;19.02;58.89;99102.41;1646537;85;21010;-70
2021/05/15 07:43:09;;;;;;;4.37;2.65;;;;;;;19.05;58.77;99105.86;1648009;85;20986;-69
2021/05/15 07:45:36;;;;;;;7.78;3.05;;;;;;;19.10;58.75;99097.52;1669334;85;21758;-68
2021/05/15 07:48:03;;;;;;;7.95;3.00;;;;;;;19.19;58.68;99102.97;1646573;85;21074;-70
2021/05/15 07:50:29;;;;;;;3.65;3.15;;;;;;;19.19;58.76;99107.05;1670032;85;21343;-71
2021/05/15 07:52:56;;;;;;;6.87;3.50;;;;;;;19.21;58.95;99104.02;1651366;85;21105;-71
2021/05/15 07:55:23;;;;;;;8.80;3.08;;;;;;;19.27;58.87;99099.46;1620230;87;21017;-68
2021/05/15 07:57:50;;;;;;;7.80;3.22;;;;;;;19.35;58.51;99101.93;1626077;87;21687;-70
2021/05/15 08:00:18;;;;;;;2.70;2.50;;;;;;;19.36;58.54;99106.27;1642756;87;21050;-70
2021/05/15 08:02:44;;;;;;;2.67;2.40;;;;;;;19.34;58.58;99103.85;1631355;86;20969;-69
2021/05/15 08:05:11;;;;;;;5.60;3.42;;;;;;;19.28;59.09;99100.27;1644600;85;21685;-69
2021/05/15 08:07:38;;;;;;;3.87;2.58;;;;;;;19.31;59.14;99098.25;1657874;85;21062;-69
2021/05/15 08:10:07;;;;;;;8.35;3.83;;;;;;;19.38;59.22;99101.27;1670129;85;21107;-70
2021/05/15 08:12:35;;;;;;;3.72;2.90;;;;;;;19.34;58.93;99098.95;1626738;87;21633;-70
2021/05/15 08:15:06;;;;;;;7.80;4.72;;;;;;;19.39;59.17;99102.89;1652998;85;21074;-69
2021/05/15 08:17:34;;;;;;;4.58;3.50;;;;;;;19.50;58.79;99105.56;1646514;85;21089;-68
2021/05/15 08:20:03;;;;;;;4.75;3.52;;;;;;;19.58;58.60;99106.11;1670243;85;21098;-71
2021/05/15 08:22:30;;;;;;;3.00;2.60;;;;;;;19.70;58.66;99106.82;1644505;85;21074;-71
2021/05/15 08:24:58;;;;;;;3.62;3.30;;;;;;;19.79;57.84;99101.59;1642862;87;21101;-69
2021/05/15 08:27:25;;;;;;;8.25;2.67;;;;;;;19.87;57.74;99103.48;1619908;87;20970;-70
2021/05/15 08:29:52;;;;;;;5.78;4.00;;;;;;;19.99;56.92;99100.09;1643908;85;21097;-67
2021/05/15 08:32:19;;;;;;;6.60;2.55;;;;;;;20.06;56.48;99102.30;1643140;85;20986;-69
2021/05/15 08:34:47;;;;;;;5.53;2.62;;;;;;;20.13;56.20;99099.88;1646092;85;21935;-69
2021/05/15 08:37:14;;;;;;;4.20;2.33;;;;;;;20.18;56.20;99095.04;1670092;85;21061;-69
2021/05/15 08:39:40;;;;;;;3.08;2.62;;;;;;;20.24;55.28;99099.16;1669908;85;21073;-70
2021/05/15 08:42:07;;;;;;;8.50;2.98;;;;;;;20.26;55.09;99094.75;1668064;85;21001;-69
2021/05/15 08:44:36;;;;;;;6.00;2.75;;;;;;;20.27;55.12;99103.19;1645738;85;21010;-68
2021/05/15 08:47:06;;;;;;;6.05;3.33;;;;;;;20.25;54.91;99104.06;1646409;85;21239;-68
2021/05/15 08:49:32;;;;;;;9.45;3.15;;;;;;;20.23;54.60;99096.78;1670135;85;21013;-67
2021/05/15 08:51:59;;;;;;;9.33;2.92;;;;;;;20.21;54.78;99094.37;1637615;87;21062;-67
2021/05/15 08:54:25;;;;;;;7.33;2.22;;;;;;;20.24;54.90;99099.16;1628535;87;21073;-69
2021/05/15 08:56:52;;;;;;;4.33;2.17;;;;;;;20.29;54.73;99105.02;1645979;85;21186;-70
2021/05/15 08:59:18;;;;;;;3.27;2.42;;;;;;;20.29;54.33;99104.45;1646116;85;21645;-67
2021/05/15 09:01:45;;;;;;;7.42;2.20;;;;;;;20.30;54.49;99113.45;1642634;87;21057;-68
2021/05/15 09:04:12;;;;;;;3.95;2.10;;;;;;;20.28;54.39;99107.53;1642908;87;21009;-68
2021/05/15 09:06:42;;;;;;;4.35;2.08;;;;;;;20.28;54.46;99108.89;1624477;86;21704;-68
2021/05/15 09:09:09;;;;;;;13.10;2.22;;;;;;;20.32;54.39;99103.84;1668616;85;21037;-70
2021/05/15 09:11:37;;;;;;;5.55;1.82;;;;;;;20.39;54.45;99106.84;1669113;85;21594;-73
2021/05/15 09:14:04;;;;;;;4.20;1.50;;;;;;;20.44;54.42;99108.03;1669893;85;21089;-68
2021/05/15 09:16:30;;;;;;;4.90;1.80;;;;;;;20.51;54.32;99106.72;1666040;85;21605;-68
2021/05/15 09:19:05;;;;;;;4.20;2.52;;;;;;;20.50;53.30;99106.48;1654818;85;21129;-69
2021/05/15 09:21:32;;;;;;;6.85;2.55;;;;;;;20.55;53.31;99110.39;1659979;85;21084;-68
2021/05/15 09:24:05;;;;;;;10.72;2.80;;;;;;;20.55;53.31;99110.39;1654395;85;21135;-72
2021/05/15 09:26:29;;;;;;;3.20;2.00;;;;;;;20.53;53.24;99109.94;1646159;85;21111;-69
2021/05/15 09:28:57;;;;;;;10.30;2.47;;;;;;;20.53;53.36;99119.50;1669972;85;21085;-69
2021/05/15 09:31:30;;;;;;;5.40;2.08;;;;;;;20.54;53.52;99119.15;1663225;85;21617;-68
2021/05/15 09:34:03;;;;;;;5.67;2.70;;;;;;;20.54;53.50;99119.72;1645018;85;21050;-68
2021/05/15 09:36:35;;;;;;;4.62;2.60;;;;;;;20.50;53.96;99116.84;1664716;85;21118;-72
2021/05/15 09:39:07;;;;;;;3.58;2.40;;;;;;;20.47;54.98;99129.00;1642412;85;20970;-70
2021/05/15 09:41:58;;;;;;;2.17;1.65;;;;;;;20.30;57.67;99136.12;1623448;87;21159;-73
2021/05/15 09:44:33;;;;;;;2.52;1.30;;;;;;;19.95;62.95;99167.38;1625590;86;21653;-73
2021/05/15 09:46:59;;;;;;;2.42;1.77;;;;;;;19.38;62.94;99131.27;1686076;84;21581;-73
2021/05/15 09:49:29;;;;;;;4.45;2.12;;;;;;;18.73;64.78;99129.45;1675904;84;20996;-73
2021/05/15 09:52:02;;;;;;;4.45;2.42;;;;;;;18.73;64.78;99129.45;1660046;84;21597;-72
2021/05/15 09:54:30;;;;;;;;;;;;;;;18.55;67.28;99128.62;1690475;84;21016;-73
2021/05/15 09:57:18;;;;;;;8.63;6.05;;;;;;;18.44;68.86;99131.34;1687203;83;20637;-75
2021/05/15 09:59:46;;;;;;;3.65;2.45;;;;;;;18.33;69.61;99125.92;1650841;84;21117;-76
2021/05/15 10:02:17;;;;;;;4.00;2.83;;;;;;;18.26;69.93;99119.59;1686225;84;21055;-73
2021/05/15 10:04:45;;;;;;;5.40;2.47;;;;;;;18.22;69.06;99119.17;1692792;84;21009;-78
2021/05/15 10:07:24;;;;;;;4.90;2.75;;;;;;;18.24;69.35;99121.00;1678304;84;20989;-71
2021/05/15 10:09:51;;;;;;;4.42;4.03;;;;;;;18.32;69.58;99126.26;1691522;84;20949;-72
2021/05/15 10:12:18;;;;;;;5.28;3.72;;;;;;;18.42;70.10;99134.92;1680047;83;21028;-71
2021/05/15 10:14:45;;;;;;;3.27;2.90;;;;;;;18.55;69.48;99131.89;1675837;84;21339;-72
2021/05/15 10:17:11;;;;;;;4.25;2.42;;;;;;;18.71;69.99;99128.95;1651245;85;20998;-71
2021/05/15 10:19:38;;;;;;;7.80;3.02;;;;;;;18.85;69.50;99126.91;1658295;86;21106;-73
2021/05/15 10:22:04;;;;;;;13.03;7.22;;;;;;;18.96;68.49;99126.85;1670415;85;21331;-71
2021/05/15 10:24:33;;;;;;;5.15;4.10;;;;;;;19.12;68.60;99132.09;1636448;86;21062;-73
2021/05/15 10:27:05;;;;;;;5.87;2.50;;;;;;;19.28;68.61;99128.89;1660827;85;21100;-72
2021/05/15 10:29:45;;;;;;;3.27;2.98;;;;;;;19.41;66.83;99132.02;1651522;85;20956;-80
2021/05/15 10:32:22;;;;;;;2.90;2.70;;;;;;;19.53;64.62;99146.63;1612952;88;20987;-73
2021/05/15 10:35:03;;;;;;;4.28;2.42;;;;;;;19.53;65.53;99147.99;1624015;87;21083;-71
2021/05/15 10:37:33;;;;;;;2.92;2.08;;;;;;;19.44;65.70;99169.58;1624339;87;21129;-74
2021/05/15 10:40:17;;;;;;;2.75;2.40;;;;;;;19.25;65.80;99153.50;1654433;85;21324;-73
2021/05/15 10:42:45;;;;;;;2.87;2.67;;;;;;;19.15;66.75;99161.43;1645409;85;21645;-70
2021/05/15 10:45:13;;;;;;;2.98;2.67;;;;;;;18.98;67.17;99153.80;1643847;87;22319;-70
2021/05/15 10:47:43;;;;;;;2.60;2.37;;;;;;;18.85;67.83;99147.34;1632894;87;21167;-77
2021/05/15 10:50:21;;;;;;;2.45;2.25;;;;;;;18.73;67.77;99145.25;1656351;85;22446;-73
2021/05/15 10:52:51;;;;;;;2.87;2.67;;;;;;;18.65;68.34;99142.50;1625145;85;21189;-76
2021/05/15 10:55:32;;;;;;;2.55;2.33;;;;;;;18.64;68.43;99146.34;1650802;85;21579;-78
2021/05/15 10:58:13;;;;;;;2.52;2.10;;;;;;;18.76;67.93;99152.52;1671772;85;20967;-75
2021/05/15 11:00:40;;;;;;;2.42;2.12;;;;;;;18.88;67.97;99145.36;1639000;87;21582;-79
2021/05/15 11:03:06;;;;;;;3.00;2.60;;;;;;;19.11;67.29;99156.94;1630393;87;21115;-76
2021/05/15 11:05:45;;;;;;;2.52;2.33;;;;;;;19.32;66.25;99145.66;1632440;87;21780;-75
2021/05/15 11:08:24;;;;;;;5.08;2.80;;;;;;;19.54;64.26;99146.87;1645089;86;20972;-80
2021/05/15 11:10:52;;;;;;;3.08;2.87;;;;;;;19.73;62.21;99167.00;1645867;85;21010;-78
2021/05/15 11:13:21;;;;;;;5.67;3.17;;;;;;;19.77;61.33;99155.67;1632598;87;21049;-78
2021/05/15 11:15:47;;;;;;;2.77;2.58;;;;;;;19.81;61.21;99152.53;1674623;85;21644;-79
2021/05/15 11:18:27;;;;;;;2.98;2.67;;;;;;;19.87;60.21;99188.65;1678070;84;21171;-75
2021/05/15 11:20:54;;;;;;;2.98;2.70;;;;;;;19.87;59.80;99161.36;1669570;85;21604;-79
2021/05/15 11:23:22;;;;;;;2.25;2.05;;;;;;;19.85;59.11;99157.61;1662047;85;20990;-81
2021/05/15 11:26:05;;;;;;;2.20;2.10;;;;;;;19.85;58.78;99164.42;1672670;85;21007;-79
2021/05/15 11:28:31;;;;;;;7.03;5.03;;;;;;;19.88;59.06;99168.42;1668376;85;22267;-79
2021/05/15 11:31:00;;;;;;;1.82;1.70;;;;;;;19.95;57.90;99166.02;1665899;84;21238;-74
2021/05/15 11:33:28;;;;;;;3.60;2.47;;;;;;;19.97;57.22;99178.20;1666088;85;21033;-75
2021/05/15 11:35:56;;;;;;;3.98;1.98;;;;;;;19.96;56.81;99181.25;1674051;85;21085;-79
2021/05/15 11:38:30;;;;;;;3.30;2.17;;;;;;;19.99;57.49;99176.52;1674254;85;21034;-80